Time;durP1;ratioP1;P1;durP2;ratioP2;P2;SDS_P1;SDS_P2;PMS_P1;PMS_P2;Temp;Humidity;BMP_temperature;BMP_pressure;BME280_temperature;BME280_humidity;BME280_pressure;Samples;Min_cycle;Max_cycle;Signal;HPM_P1;HPM_P2
2022/03/28 00:03:11;;;;;;;3.10;1.30;;;8.90;99.90;;;;;;6075257;23;20028;-90
2022/03/28 00:18:01;;;;;;;6.50;3.13;;;9.00;99.90;;;;;;6139851;23;20101;-89
2022/03/28 00:28:43;;;;;;;4.18;2.42;;;8.00;99.90;;;;;;6160915;23;20021;-90
2022/03/28 00:46:33;;;;;;;8.98;3.17;;;8.50;99.90;;;;;;6215082;22;20028;-89
2022/03/28 00:49:49;;;;;;;4.78;2.40;;;8.70;99.90;;;;;;6186424;23;20359;-90
2022/03/28 00:53:03;;;;;;;7.95;4.13;;;8.90;99.90;;;;;;6164108;23;20088;-89
2022/03/28 00:56:48;;;;;;;5.75;2.58;;;8.70;99.90;;;;;;6179487;23;20017;-90
2022/03/28 01:08:12;;;;;;;5.07;2.92;;;8.50;99.90;;;;;;6197364;23;20035;-90
2022/03/28 01:11:34;;;;;;;5.28;3.33;;;8.60;99.90;;;;;;6232540;23;20087;-90
2022/03/28 01:19:46;;;;;;;;;;;;;;;;;;;;;
2022/03/28 02:10:25;;;;;;;5.05;2.13;;;8.60;99.90;;;;;;5688225;25;20056;-91
2022/03/28 02:50:51;;;;;;;;;;;;;;;;;;;;;
2022/03/28 02:59:17;;;;;;;4.25;2.15;;;8.00;99.90;;;;;;6076744;23;20316;-91
2022/03/28 03:03:02;;;;;;;5.05;3.65;;;8.00;99.90;;;;;;6208439;22;20059;-90
2022/03/28 03:05:42;;;;;;;7.78;3.30;;;8.20;99.90;;;;;;6199079;23;20111;-91
2022/03/28 03:08:48;;;;;;;9.95;4.43;;;8.10;99.90;;;;;;6206563;23;20082;-90
2022/03/28 03:11:28;;;;;;;5.25;3.38;;;7.90;99.90;;;;;;6223781;23;20028;-90
2022/03/28 03:18:32;;;;;;;;;;;;;;;;;;;;;
2022/03/28 03:34:28;;;;;;;;;;;;;;;;;;;;;
2022/03/28 04:15:02;;;;;;;;;;;;;;;;;;;;;
2022/03/28 04:38:09;;;;;;;2.97;2.25;;;7.80;99.90;;;;;;6194003;23;20027;-89
2022/03/28 04:41:55;;;;;;;3.33;2.20;;;8.20;99.90;;;;;;6142558;23;20098;-91
2022/03/28 04:44:47;;;;;;;8.60;4.57;;;8.00;99.90;;;;;;6185875;23;20345;-89
2022/03/28 04:47:49;;;;;;;8.48;3.38;;;7.50;99.90;;;;;;6159336;23;20361;-91
2022/03/28 04:50:38;;;;;;;8.90;3.67;;;7.90;99.90;;;;;;6146146;23;20337;-89
2022/03/28 04:53:21;;;;;;;7.10;3.70;;;8.10;99.90;;;;;;6137252;23;20479;-88
2022/03/28 04:55:56;;;;;;;4.43;2.70;;;8.10;99.90;;;;;;6136438;23;20052;-90
2022/03/28 04:58:29;;;;;;;6.15;2.63;;;8.00;99.90;;;;;;6159275;23;20017;-89
2022/03/28 05:02:14;;;;;;;;;;;;;;;;;;;;;
2022/03/28 05:05:26;;;;;;;5.07;2.60;;;8.20;99.90;;;;;;6069269;23;20102;-90
2022/03/28 05:07:56;;;;;;;7.93;4.07;;;7.80;99.90;;;;;;6070217;23;20468;-92
2022/03/28 05:10:35;;;;;;;3.28;2.17;;;7.80;99.90;;;;;;6047043;23;20525;-92
2022/03/28 05:14:02;;;;;;;;;;;;;;;;;;;;;
2022/03/28 05:16:42;;;;;;;4.03;2.70;;;7.90;99.90;;;;;;6069931;23;20078;-93
2022/03/28 05:19:14;;;;;;;3.35;2.22;;;7.90;99.90;;;;;;6069711;23;20517;-89
2022/03/28 05:21:47;;;;;;;3.45;2.25;;;8.00;99.90;;;;;;6072170;23;20050;-91
2022/03/28 05:37:17;;;;;;;4.10;2.72;;;8.30;99.90;;;;;;5900207;24;20095;-90
2022/03/28 05:39:56;;;;;;;12.85;6.72;;;8.50;99.90;;;;;;5952411;24;20024;-89
2022/03/28 05:43:05;;;;;;;8.05;4.90;;;8.40;99.90;;;;;;5979967;23;20083;-90
2022/03/28 05:47:00;;;;;;;7.22;3.47;;;8.50;99.90;;;;;;6017833;23;20486;-90
2022/03/28 05:49:55;;;;;;;11.50;5.30;;;8.30;99.90;;;;;;6104261;23;20034;-90
2022/03/28 05:53:13;;;;;;;;;;;;;;;;;;;;;
2022/03/28 05:56:06;;;;;;;10.35;4.68;;;7.40;99.90;;;;;;6097384;23;20488;-89
2022/03/28 05:59:28;;;;;;;9.10;4.97;;;7.40;99.90;;;;;;6116005;23;20040;-92
2022/03/28 06:01:58;;;;;;;7.82;4.07;;;7.30;99.90;;;;;;6188066;23;20059;-88
2022/03/28 06:04:25;;;;;;;6.03;3.35;;;7.80;99.90;;;;;;6187801;23;20016;-90
2022/03/28 06:11:07;;;;;;;5.28;2.83;;;7.80;99.90;;;;;;6215267;23;20120;-90
2022/03/28 06:14:02;;;;;;;4.68;3.25;;;8.20;99.90;;;;;;6193444;23;20040;-91
2022/03/28 06:16:58;;;;;;;5.00;3.00;;;7.90;99.90;;;;;;6200956;23;20027;-92
2022/03/28 06:19:59;;;;;;;7.80;3.10;;;7.80;99.90;;;;;;6215313;23;20414;-92
2022/03/28 06:23:26;;;;;;;5.57;2.85;;;7.80;99.90;;;;;;6197087;23;20042;-95
2022/03/28 06:26:35;;;;;;;65.55;40.53;;;8.00;99.90;;;;;;6121361;23;20061;-87
2022/03/28 06:29:12;;;;;;;13.98;10.48;;;8.20;99.90;;;;;;6187206;23;20021;-88
2022/03/28 06:31:42;;;;;;;7.30;3.63;;;8.30;99.90;;;;;;6212817;23;20020;-88
2022/03/28 06:34:13;;;;;;;8.50;4.45;;;8.40;99.90;;;;;;6188337;23;20023;-89
2022/03/28 06:36:44;;;;;;;5.70;3.53;;;8.50;99.90;;;;;;6187245;23;20041;-88
2022/03/28 06:39:12;;;;;;;6.43;4.25;;;8.50;99.90;;;;;;6211712;23;20027;-88
2022/03/28 06:41:39;;;;;;;7.93;4.38;;;8.50;99.90;;;;;;6187832;23;20072;-86
2022/03/28 06:44:13;;;;;;;6.30;3.97;;;8.40;99.90;;;;;;6213811;23;20034;-88
2022/03/28 06:46:45;;;;;;;5.20;3.78;;;7.80;99.90;;;;;;6212125;23;20443;-87
2022/03/28 06:49:15;;;;;;;5.82;3.75;;;7.70;99.90;;;;;;6211705;23;20028;-88
2022/03/28 06:51:46;;;;;;;3.53;2.88;;;7.70;99.90;;;;;;6188072;23;20408;-88
2022/03/28 06:54:15;;;;;;;5.82;3.60;;;8.00;99.90;;;;;;6187331;23;20024;-87
2022/03/28 06:56:46;;;;;;;4.97;3.00;;;8.10;99.90;;;;;;6213630;23;20013;-87
2022/03/28 06:59:23;;;;;;;5.32;3.05;;;8.30;99.90;;;;;;6186575;23;20024;-88
2022/03/28 07:01:57;;;;;;;4.93;2.97;;;8.10;99.90;;;;;;6162236;23;20013;-88
2022/03/28 07:04:32;;;;;;;5.50;3.10;;;8.10;99.90;;;;;;6165707;23;20020;-86
2022/03/28 07:07:08;;;;;;;7.53;3.47;;;8.10;99.90;;;;;;6190813;23;20087;-87
2022/03/28 07:09:42;;;;;;;4.50;2.80;;;8.10;99.90;;;;;;6189019;23;20020;-90
2022/03/28 07:12:16;;;;;;;4.05;2.83;;;8.00;99.90;;;;;;6164812;23;20028;-89
2022/03/28 07:14:48;;;;;;;3.80;2.88;;;7.80;99.90;;;;;;6187908;23;20351;-87
2022/03/28 07:17:22;;;;;;;5.63;3.38;;;8.00;99.90;;;;;;6212107;23;20024;-87
2022/03/28 07:19:57;;;;;;;4.40;3.00;;;7.60;99.90;;;;;;6162905;23;20013;-88
2022/03/28 07:22:31;;;;;;;4.50;2.70;;;8.00;99.90;;;;;;6214228;23;20070;-87
2022/03/28 07:25:00;;;;;;;9.73;3.13;;;7.90;99.90;;;;;;6164419;23;20020;-87
2022/03/28 07:27:35;;;;;;;5.00;2.55;;;7.90;99.90;;;;;;6215042;23;20042;-87
2022/03/28 07:30:11;;;;;;;3.58;2.15;;;7.50;99.90;;;;;;6215513;23;20364;-88
2022/03/28 07:32:41;;;;;;;5.13;3.20;;;7.80;99.90;;;;;;6188431;23;20021;-88
2022/03/28 07:35:10;;;;;;;4.78;2.92;;;7.90;99.90;;;;;;6188979;23;20369;-87
2022/03/28 07:37:40;;;;;;;5.85;2.83;;;8.00;99.90;;;;;;6188689;23;20051;-87
2022/03/28 07:40:11;;;;;;;5.47;2.80;;;7.90;99.90;;;;;;6188718;23;20019;-87
2022/03/28 07:42:43;;;;;;;5.30;2.80;;;8.00;99.90;;;;;;6215267;23;20063;-87
2022/03/28 07:45:15;;;;;;;5.28;2.45;;;8.30;99.90;;;;;;6188731;23;20074;-86
2022/03/28 07:47:46;;;;;;;6.22;3.30;;;8.30;99.90;;;;;;6215032;23;20083;-88
2022/03/28 07:50:19;;;;;;;10.27;4.20;;;8.20;99.90;;;;;;6164286;23;20017;-88
2022/03/28 07:52:52;;;;;;;5.78;2.80;;;8.10;99.90;;;;;;6188837;23;20028;-86
2022/03/28 07:55:26;;;;;;;5.95;2.97;;;8.00;99.90;;;;;;6164994;23;20012;-87
2022/03/28 07:57:59;;;;;;;5.95;3.35;;;7.90;99.90;;;;;;6215557;23;20036;-88
2022/03/28 08:00:26;;;;;;;6.50;3.53;;;7.90;99.90;;;;;;6189025;23;20020;-87
2022/03/28 08:02:59;;;;;;;7.15;4.22;;;7.70;99.90;;;;;;6189951;23;20013;-87
2022/03/28 08:05:34;;;;;;;8.55;3.38;;;7.80;99.90;;;;;;6190037;23;20012;-88
2022/03/28 08:08:10;;;;;;;6.85;3.80;;;8.00;99.90;;;;;;6165238;23;20067;-86
2022/03/28 08:10:39;;;;;;;6.53;3.83;;;7.70;99.90;;;;;;6188973;23;20048;-87
2022/03/28 08:13:12;;;;;;;7.85;4.43;;;7.90;99.90;;;;;;6188492;23;20024;-88
2022/03/28 08:16:02;;;;;;;7.35;4.57;;;7.80;99.90;;;;;;6214232;23;20440;-88
2022/03/28 08:18:39;;;;;;;6.53;3.95;;;7.70;99.90;;;;;;6215282;23;20344;-87
2022/03/28 08:21:13;;;;;;;7.20;4.15;;;8.10;99.90;;;;;;6188475;23;20017;-88
2022/03/28 08:23:49;;;;;;;7.93;4.15;;;8.00;99.90;;;;;;6215387;23;20063;-88
2022/03/28 08:26:18;;;;;;;5.28;2.90;;;8.30;99.90;;;;;;6213809;23;20023;-88
2022/03/28 08:28:50;;;;;;;6.20;3.10;;;8.60;99.90;;;;;;6214804;23;20351;-88
2022/03/28 08:31:20;;;;;;;8.20;4.53;;;8.80;99.90;;;;;;6164492;23;20333;-88
2022/03/28 08:33:48;;;;;;;13.77;6.03;;;8.60;99.90;;;;;;6215470;23;20021;-87
2022/03/28 08:36:21;;;;;;;6.45;3.97;;;8.40;99.90;;;;;;6188402;23;20088;-88
2022/03/28 08:38:59;;;;;;;6.90;4.18;;;8.50;99.90;;;;;;6188503;23;20554;-87
2022/03/28 08:41:33;;;;;;;6.05;3.90;;;8.40;99.90;;;;;;6188514;23;20020;-88
2022/03/28 08:44:04;;;;;;;5.47;4.13;;;8.60;99.90;;;;;;6215303;23;20017;-87
2022/03/28 08:46:41;;;;;;;7.15;4.63;;;8.70;99.90;;;;;;6166835;23;20043;-87
2022/03/28 08:49:26;;;;;;;5.35;3.47;;;8.70;99.90;;;;;;6189165;23;20080;-86
2022/03/28 08:52:08;;;;;;;5.85;3.80;;;8.90;99.90;;;;;;6187767;23;20028;-87
2022/03/28 08:54:44;;;;;;;3.78;3.00;;;8.90;99.90;;;;;;6212369;23;20108;-87
2022/03/28 08:57:17;;;;;;;9.13;5.15;;;9.00;99.90;;;;;;6188190;23;20510;-87
2022/03/28 08:59:54;;;;;;;6.93;4.35;;;8.60;99.90;;;;;;6214407;23;20023;-87
2022/03/28 09:02:47;;;;;;;7.63;3.90;;;8.60;99.90;;;;;;6213342;23;20012;-88
2022/03/28 09:05:47;;;;;;;5.20;3.42;;;8.80;99.90;;;;;;6166158;23;20079;-88
2022/03/28 09:08:29;;;;;;;6.50;2.70;;;8.90;99.90;;;;;;6188486;23;20027;-87
2022/03/28 09:11:20;;;;;;;5.78;4.07;;;9.10;99.90;;;;;;6187041;23;20021;-88
2022/03/28 09:14:04;;;;;;;4.78;3.08;;;9.00;99.90;;;;;;6188134;23;20041;-88
2022/03/28 09:16:46;;;;;;;;;;;8.90;99.90;;;;;;6165387;23;20009;-87
2022/03/28 09:19:24;;;;;;;4.57;3.10;;;9.20;99.90;;;;;;6163469;23;20007;-86
2022/03/28 09:22:16;;;;;;;5.75;3.90;;;9.30;99.90;;;;;;6166501;23;20022;-87
2022/03/28 09:24:51;;;;;;;7.32;3.47;;;9.40;99.90;;;;;;6189488;23;20095;-88
2022/03/28 09:27:37;;;;;;;3.42;2.75;;;9.30;99.90;;;;;;6214425;23;20091;-89
2022/03/28 09:30:15;;;;;;;6.38;4.43;;;9.40;99.90;;;;;;6165170;23;20028;-87
2022/03/28 09:32:52;;;;;;;7.75;5.10;;;9.20;99.90;;;;;;6213943;23;20094;-88
2022/03/28 09:35:27;;;;;;;8.18;5.10;;;8.80;99.90;;;;;;6166714;23;20084;-87
2022/03/28 09:38:19;;;;;;;7.47;4.70;;;8.50;99.90;;;;;;6188636;23;20024;-87
2022/03/28 09:40:58;;;;;;;4.97;2.80;;;8.50;99.90;;;;;;6191728;23;20023;-87
2022/03/28 09:43:43;;;;;;;4.43;2.95;;;9.10;99.90;;;;;;6188088;23;20508;-88
2022/03/28 09:46:46;;;;;;;4.55;3.30;;;9.40;99.90;;;;;;6213160;23;20100;-88
2022/03/28 09:49:39;;;;;;;9.07;5.22;;;9.50;99.90;;;;;;6165993;23;20106;-88
2022/03/28 09:52:33;;;;;;;4.30;3.33;;;9.40;99.90;;;;;;6188337;23;20048;-88
2022/03/28 09:55:15;;;;;;;5.72;4.18;;;9.50;99.90;;;;;;6164671;23;20031;-88
2022/03/28 09:58:01;;;;;;;5.68;3.35;;;9.50;99.90;;;;;;6186959;23;20021;-88
2022/03/28 10:00:50;;;;;;;6.78;4.65;;;9.40;99.90;;;;;;6187090;23;20436;-89
2022/03/28 10:03:34;;;;;;;8.38;4.35;;;9.60;99.90;;;;;;6187792;23;20412;-87
2022/03/28 10:06:19;;;;;;;10.18;5.28;;;9.60;99.90;;;;;;6164698;23;20333;-88
2022/03/28 10:09:10;;;;;;;6.90;4.82;;;9.20;99.90;;;;;;6213736;23;20048;-88
2022/03/28 10:12:07;;;;;;;6.82;4.72;;;9.20;99.90;;;;;;6165937;23;20079;-88
2022/03/28 10:14:57;;;;;;;6.53;4.30;;;9.20;99.90;;;;;;6163586;23;20021;-88
2022/03/28 10:17:33;;;;;;;5.07;4.30;;;9.60;99.90;;;;;;6213949;23;20020;-88
2022/03/28 10:20:12;;;;;;;6.82;4.65;;;9.90;99.90;;;;;;6187220;23;20444;-88
2022/03/28 10:23:15;;;;;;;7.38;4.60;;;10.00;99.90;;;;;;6213834;23;20016;-88
2022/03/28 10:26:00;;;;;;;6.57;4.43;;;9.50;99.90;;;;;;6147232;23;20016;-89
2022/03/28 10:29:09;;;;;;;5.30;3.63;;;9.80;99.90;;;;;;6196022;23;20060;-88
2022/03/28 10:35:13;;;;;;;5.15;3.63;;;10.10;99.90;;;;;;6160104;23;20024;-87
2022/03/28 10:37:48;;;;;;;9.27;6.03;;;9.90;99.90;;;;;;6189102;23;20020;-88
2022/03/28 10:40:29;;;;;;;6.63;5.13;;;9.70;99.90;;;;;;6214254;23;20066;-87
2022/03/28 10:43:28;;;;;;;5.80;4.43;;;9.30;99.90;;;;;;6186874;23;20095;-88
2022/03/28 10:46:24;;;;;;;6.22;3.40;;;9.80;99.90;;;;;;6189798;23;20017;-87
2022/03/28 10:49:39;;;;;;;5.88;3.35;;;10.00;99.90;;;;;;6169740;23;20031;-87
2022/03/28 10:53:30;;;;;;;8.00;4.97;;;10.40;99.90;;;;;;6187718;23;20021;-88
2022/03/28 10:56:57;;;;;;;6.35;4.65;;;10.40;99.90;;;;;;6186930;23;20020;-88
2022/03/28 11:00:29;;;;;;;5.78;3.95;;;10.40;99.90;;;;;;6173957;23;20017;-88
2022/03/28 11:03:40;;;;;;;8.10;4.75;;;9.90;99.90;;;;;;6191190;23;20091;-88
2022/03/28 11:06:59;;;;;;;4.90;3.55;;;10.00;99.90;;;;;;6215532;23;20016;-88
2022/03/28 11:10:23;;;;;;;6.90;3.78;;;10.40;99.90;;;;;;6165899;23;20547;-87
2022/03/28 11:13:21;;;;;;;7.95;3.20;;;10.70;99.90;;;;;;6164634;23;20498;-88
2022/03/28 11:17:02;;;;;;;3.92;2.90;;;10.90;99.90;;;;;;6215284;23;20436;-88
2022/03/28 11:20:09;;;;;;;4.60;3.15;;;11.00;99.90;;;;;;6164267;23;20027;-88
2022/03/28 11:26:39;;;;;;;6.47;4.38;;;10.70;99.90;;;;;;6181058;23;20040;-88
2022/03/28 11:30:10;;;;;;;5.13;3.60;;;10.80;99.90;;;;;;6188713;23;20072;-88
2022/03/28 11:33:18;;;;;;;4.47;2.47;;;11.20;99.90;;;;;;6191851;23;20492;-88
2022/03/28 11:36:15;;;;;;;6.13;3.63;;;11.40;99.90;;;;;;6215174;23;20095;-88
2022/03/28 11:42:52;;;;;;;;;;;;;;;;;;;;;
2022/03/28 11:46:11;;;;;;;6.50;4.53;;;11.70;99.90;;;;;;6122843;23;20045;-88
2022/03/28 11:53:00;;;;;;;5.57;3.85;;;11.90;99.90;;;;;;6095942;23;20033;-89
2022/03/28 11:55:53;;;;;;;4.88;2.80;;;11.50;99.90;;;;;;6101022;23;20044;-87
2022/03/28 11:58:33;;;;;;;6.78;4.15;;;11.60;99.90;;;;;;6075423;23;20042;-87
2022/03/28 12:02:06;;;;;;;7.35;4.25;;;11.80;99.90;;;;;;6074911;23;20101;-88
2022/03/28 12:05:35;;;;;;;4.72;3.83;;;12.00;99.90;;;;;;6064728;23;20018;-88
2022/03/28 12:08:25;;;;;;;5.30;4.03;;;12.20;99.90;;;;;;6083928;23;20057;-88
2022/03/28 12:18:58;;;;;;;;;;;;;;;;;;;;;
2022/03/28 12:23:25;;;;;;;;;;;;;;;;;;;;;
2022/03/28 12:34:50;;;;;;;8.43;4.97;;;12.60;99.90;;;;;;6083976;23;20037;-88
2022/03/28 13:10:19;;;;;;;3.97;2.72;;;13.00;99.90;;;;;;5904797;24;20370;-87
2022/03/28 13:22:37;;;;;;;4.10;2.78;;;13.60;99.90;;;;;;6009468;23;20057;-88
2022/03/28 13:35:21;;;;;;;;;;;;;;;;;;;;;
2022/03/28 13:52:08;;;;;;;4.75;3.13;;;13.40;99.90;;;;;;6150679;23;20039;-88
2022/03/28 13:55:45;;;;;;;5.20;3.83;;;13.60;99.90;;;;;;6151093;23;20109;-88
2022/03/28 14:25:48;;;;;;;6.35;4.78;;;12.80;99.90;;;;;;5942294;23;20071;-87
2022/03/28 14:29:48;;;;;;;4.47;3.40;;;13.40;99.90;;;;;;6032698;23;20011;-89
2022/03/28 14:53:48;;;;;;;4.00;3.08;;;13.90;99.90;;;;;;6152365;23;20034;-88
2022/03/28 15:14:55;;;;;;;9.43;5.57;;;14.40;99.90;;;;;;5921543;24;20029;-88
2022/03/28 15:29:26;;;;;;;;;;;;;;;;;;;;;
2022/03/28 15:36:58;;;;;;;8.52;4.60;;;14.20;99.90;;;;;;6096266;23;20093;-90
2022/03/28 15:39:43;;;;;;;7.70;4.40;;;14.30;99.90;;;;;;6159193;23;20021;-89
2022/03/28 15:51:33;;;;;;;8.82;6.00;;;12.70;99.90;;;;;;6014046;23;20630;-89
2022/03/28 15:54:51;;;;;;;12.45;6.57;;;12.80;99.90;;;;;;6038045;23;20087;-89
2022/03/28 15:58:29;;;;;;;6.32;4.03;;;12.70;99.90;;;;;;6061622;23;20473;-90
2022/03/28 16:04:49;;;;;;;7.35;4.82;;;13.20;99.90;;;;;;6226390;22;20095;-88
2022/03/28 16:07:45;;;;;;;5.38;3.53;;;13.40;99.90;;;;;;6226410;23;20023;-88
2022/03/28 16:11:11;;;;;;;5.25;3.67;;;13.50;99.90;;;;;;6263900;22;20022;-90
2022/03/28 16:14:11;;;;;;;6.60;4.63;;;13.50;99.90;;;;;;6262832;22;20309;-88
2022/03/28 16:22:30;;;;;;;;;;;;;;;;;;;;;
2022/03/28 17:01:18;;;;;;;;;;;;;;;;;;;;;
2022/03/28 17:04:38;;;;;;;10.43;5.82;;;12.90;99.90;;;;;;6276135;22;20085;-89
2022/03/28 17:07:47;;;;;;;12.32;7.88;;;12.60;99.90;;;;;;6276713;22;20019;-89
2022/03/28 17:11:13;;;;;;;11.13;7.15;;;12.20;99.90;;;;;;6268252;22;20075;-88
2022/03/28 17:13:54;;;;;;;14.80;8.52;;;12.60;99.90;;;;;;6274182;22;20097;-89
2022/03/28 17:16:32;;;;;;;13.95;9.00;;;12.00;99.90;;;;;;6248260;22;20019;-89
2022/03/28 17:19:31;;;;;;;7.90;5.25;;;11.50;99.90;;;;;;6227331;22;20011;-88
2022/03/28 17:22:19;;;;;;;9.65;6.15;;;11.30;99.90;;;;;;6234044;22;20019;-88
2022/03/28 17:24:54;;;;;;;8.93;5.57;;;12.10;99.90;;;;;;6274995;22;20012;-88
2022/03/28 17:27:51;;;;;;;8.80;5.78;;;12.00;99.90;;;;;;6275531;22;20389;-88
2022/03/28 17:30:54;;;;;;;7.97;5.68;;;12.10;99.90;;;;;;6251209;22;20020;-88
2022/03/28 17:33:47;;;;;;;7.38;4.75;;;12.30;99.90;;;;;;6252921;22;20065;-89
2022/03/28 17:37:00;;;;;;;10.88;7.43;;;12.30;99.90;;;;;;6249980;22;20020;-88
2022/03/28 17:39:44;;;;;;;9.77;5.68;;;12.20;99.90;;;;;;6272286;22;20015;-89
2022/03/28 17:45:40;;;;;;;;;;;11.90;99.90;;;;;;6273637;22;20018;-88
2022/03/28 17:48:25;;;;;;;12.73;8.30;;;11.90;99.90;;;;;;6230873;22;20354;-88
2022/03/28 17:51:11;;;;;;;12.05;8.10;;;11.80;99.90;;;;;;6270972;22;20024;-87
2022/03/28 17:54:07;;;;;;;12.52;8.00;;;11.60;99.90;;;;;;6208255;22;20450;-89
2022/03/28 17:57:54;;;;;;;21.45;11.52;;;11.80;99.90;;;;;;6272411;22;20074;-89
2022/03/28 18:00:47;;;;;;;13.38;7.78;;;11.10;99.90;;;;;;6273195;22;20022;-88
2022/03/28 18:03:37;;;;;;;;;;;11.40;99.90;;;;;;6274694;22;20016;-88
2022/03/28 18:06:25;;;;;;;11.23;7.30;;;11.60;99.90;;;;;;6251367;22;19919;-90
2022/03/28 18:09:11;;;;;;;17.33;11.18;;;11.60;99.90;;;;;;6275504;22;20019;-90
2022/03/28 18:13:03;;;;;;;12.65;7.95;;;11.00;99.90;;;;;;6274046;22;20031;-90
2022/03/28 18:16:34;;;;;;;16.30;9.57;;;11.40;99.90;;;;;;6192967;23;20021;-89
2022/03/28 18:25:16;;;;;;;;;;;;;;;;;;;;;
2022/03/28 18:33:19;;;;;;;;;;;;;;;;;;;;;
2022/03/28 18:36:44;;;;;;;9.85;6.20;;;11.20;99.90;;;;;;6162905;23;20521;-89
2022/03/28 18:40:51;;;;;;;18.55;9.25;;;11.30;99.90;;;;;;6163797;23;20021;-91
2022/03/28 19:09:41;;;;;;;18.20;10.18;;;10.70;99.90;;;;;;6132640;23;20092;-89
2022/03/28 19:17:02;;;;;;;14.02;8.35;;;10.50;99.90;;;;;;6244579;22;20027;-89
2022/03/28 19:21:25;;;;;;;;;;;;;;;;;;;;;
2022/03/28 19:25:33;;;;;;;16.13;9.60;;;10.40;99.90;;;;;;6273141;22;20455;-89
2022/03/28 19:33:43;;;;;;;17.85;10.18;;;10.70;99.90;;;;;;6226258;22;20087;-89
2022/03/28 19:36:37;;;;;;;22.33;12.45;;;10.70;99.90;;;;;;6249844;22;20020;-89
2022/03/28 19:43:51;;;;;;;18.13;10.48;;;10.40;99.90;;;;;;6239419;22;20081;-88
2022/03/28 19:54:41;;;;;;;20.90;11.93;;;10.40;99.90;;;;;;6185228;23;20084;-88
2022/03/28 19:58:36;;;;;;;;;;;;;;;;;;;;;
2022/03/28 20:01:56;;;;;;;16.10;9.30;;;10.10;99.90;;;;;;6034491;23;20095;-89
2022/03/28 20:05:52;;;;;;;19.17;10.95;;;10.30;99.90;;;;;;6003126;23;20011;-87
2022/03/28 20:13:08;;;;;;;15.50;9.02;;;10.30;99.90;;;;;;6001944;23;20110;-86
2022/03/28 20:15:58;;;;;;;22.08;12.48;;;10.20;99.90;;;;;;6006620;23;20035;-87
2022/03/28 20:19:08;;;;;;;15.88;10.13;;;10.10;99.90;;;;;;6007251;23;20023;-87
2022/03/28 20:22:23;;;;;;;19.45;10.10;;;10.30;99.90;;;;;;6006498;23;20046;-87
2022/03/28 20:25:53;;;;;;;23.67;12.18;;;10.20;99.90;;;;;;6043584;23;20062;-87
2022/03/28 20:35:08;;;;;;;19.55;10.00;;;10.10;99.90;;;;;;6155082;23;20021;-88
2022/03/28 20:37:36;;;;;;;17.02;9.55;;;10.00;99.90;;;;;;6165137;23;20128;-88
2022/03/28 20:40:10;;;;;;;16.77;9.50;;;10.00;99.90;;;;;;6245227;23;20509;-88
2022/03/28 20:42:43;;;;;;;21.73;10.85;;;10.10;99.90;;;;;;6193965;23;20019;-87
2022/03/28 20:45:11;;;;;;;14.38;9.30;;;10.10;99.90;;;;;;6219123;23;20023;-88
2022/03/28 20:47:45;;;;;;;20.95;10.25;;;10.00;99.90;;;;;;6220029;23;20024;-88
2022/03/28 20:50:22;;;;;;;17.98;8.98;;;10.00;99.90;;;;;;6219646;23;20020;-87
2022/03/28 20:52:59;;;;;;;18.85;9.50;;;9.80;99.90;;;;;;6220443;23;20027;-87
2022/03/28 20:55:31;;;;;;;24.20;12.63;;;9.90;99.90;;;;;;6193713;23;20024;-87
2022/03/28 20:58:02;;;;;;;17.20;8.88;;;9.90;99.90;;;;;;6217123;23;20044;-87
2022/03/28 21:00:32;;;;;;;22.95;10.52;;;9.90;99.90;;;;;;6193663;23;20024;-88
2022/03/28 21:03:08;;;;;;;21.98;10.48;;;10.00;99.90;;;;;;6229951;22;20015;-87
2022/03/28 21:05:47;;;;;;;19.55;10.48;;;9.90;99.90;;;;;;6252056;22;20087;-87
2022/03/28 21:08:23;;;;;;;24.02;11.45;;;10.00;99.90;;;;;;6251108;22;20023;-86
2022/03/28 21:10:55;;;;;;;22.42;10.48;;;9.80;99.90;;;;;;6276332;22;20517;-87
2022/03/28 21:13:24;;;;;;;23.92;11.05;;;9.80;99.90;;;;;;6275967;22;20699;-87
2022/03/28 21:15:57;;;;;;;22.15;11.30;;;9.80;99.90;;;;;;6274662;22;20106;-86
2022/03/28 21:18:33;;;;;;;20.65;10.48;;;9.80;99.90;;;;;;6277066;22;20093;-87
2022/03/28 21:21:09;;;;;;;25.05;12.60;;;9.80;99.90;;;;;;6274422;22;20022;-87
2022/03/28 21:23:51;;;;;;;26.33;11.95;;;9.80;99.90;;;;;;6275249;22;20024;-89
2022/03/28 21:26:22;;;;;;;23.75;11.50;;;9.80;99.90;;;;;;6273729;22;20015;-87
2022/03/28 21:28:54;;;;;;;24.35;10.85;;;9.80;99.90;;;;;;6275009;22;20019;-87
2022/03/28 21:31:21;;;;;;;20.17;10.27;;;9.70;99.90;;;;;;6275925;22;20019;-87
2022/03/28 21:33:52;;;;;;;25.67;11.68;;;9.60;99.90;;;;;;6275910;22;20015;-87
2022/03/28 21:36:22;;;;;;;21.02;9.88;;;9.40;99.90;;;;;;6274122;22;20012;-88
2022/03/28 21:38:53;;;;;;;20.05;9.63;;;9.70;99.90;;;;;;6225132;22;20447;-88
2022/03/28 21:41:26;;;;;;;18.40;9.55;;;9.50;99.90;;;;;;6274244;22;20113;-87
2022/03/28 21:44:00;;;;;;;17.98;8.30;;;9.70;99.90;;;;;;6274757;22;20433;-88
2022/03/28 21:46:38;;;;;;;17.38;9.30;;;9.70;99.90;;;;;;6273692;22;20012;-88
2022/03/28 21:49:18;;;;;;;18.52;9.27;;;9.70;99.90;;;;;;6275342;22;20474;-87
2022/03/28 21:51:57;;;;;;;19.48;9.00;;;9.70;99.90;;;;;;6275380;22;20039;-87
2022/03/28 21:54:28;;;;;;;17.77;8.38;;;9.60;99.90;;;;;;6274371;22;20390;-88
2022/03/28 21:57:02;;;;;;;21.00;10.10;;;9.60;99.90;;;;;;6273116;22;20020;-87
2022/03/28 21:59:36;;;;;;;16.67;8.48;;;9.50;99.90;;;;;;6250484;22;20011;-87
2022/03/28 22:02:28;;;;;;;15.02;7.78;;;9.50;99.90;;;;;;6275484;22;20059;-87
2022/03/28 22:05:08;;;;;;;15.68;8.07;;;9.60;99.90;;;;;;6274493;22;20062;-87
2022/03/28 22:07:39;;;;;;;15.65;7.93;;;9.40;99.90;;;;;;6277702;22;20046;-88
2022/03/28 22:10:08;;;;;;;12.90;6.90;;;9.50;99.90;;;;;;6275784;22;20027;-87
2022/03/28 22:12:36;;;;;;;16.75;8.60;;;9.50;99.90;;;;;;6276360;22;20080;-86
2022/03/28 22:15:06;;;;;;;11.48;6.55;;;9.50;99.90;;;;;;6274547;22;20081;-87
2022/03/28 22:17:39;;;;;;;14.90;7.60;;;9.60;99.90;;;;;;6274312;22;20102;-87
2022/03/28 22:20:09;;;;;;;14.80;7.63;;;9.50;99.90;;;;;;6273934;22;20019;-88
2022/03/28 22:22:38;;;;;;;12.82;7.45;;;9.50;99.90;;;;;;6274274;22;20421;-86
2022/03/28 22:25:12;;;;;;;12.38;6.68;;;9.10;99.90;;;;;;6273987;22;20007;-88
2022/03/28 22:27:44;;;;;;;12.38;7.80;;;9.00;99.90;;;;;;6248873;22;20071;-87
2022/03/28 22:30:15;;;;;;;14.00;7.32;;;9.00;99.90;;;;;;6248765;22;20024;-88
2022/03/28 22:32:42;;;;;;;13.68;7.47;;;9.20;99.90;;;;;;6248843;22;20045;-87
2022/03/28 22:35:10;;;;;;;14.57;6.80;;;9.20;99.90;;;;;;6273874;22;20050;-87
2022/03/28 22:37:40;;;;;;;11.18;5.97;;;9.20;99.90;;;;;;6273489;22;20020;-89
2022/03/28 22:40:12;;;;;;;14.45;7.07;;;9.30;99.90;;;;;;6275381;22;20035;-88
2022/03/28 22:42:39;;;;;;;16.10;6.85;;;9.40;99.90;;;;;;6275584;22;20497;-87
2022/03/28 22:45:12;;;;;;;13.02;6.53;;;9.30;99.90;;;;;;6275803;22;20018;-87
2022/03/28 22:47:47;;;;;;;8.80;5.43;;;9.40;99.90;;;;;;6273561;22;20216;-87
2022/03/28 22:50:21;;;;;;;11.63;6.28;;;9.50;99.90;;;;;;6274331;22;20016;-88
2022/03/28 22:52:51;;;;;;;13.95;6.97;;;9.30;99.90;;;;;;6271670;22;20023;-87
2022/03/28 22:55:24;;;;;;;13.15;7.75;;;9.20;99.90;;;;;;6275050;22;20024;-87
2022/03/28 22:57:52;;;;;;;15.88;8.65;;;9.20;99.90;;;;;;6273092;22;20039;-87
2022/03/28 23:00:23;;;;;;;11.45;6.65;;;9.30;99.90;;;;;;6273061;22;20087;-88
2022/03/28 23:02:50;;;;;;;12.25;6.05;;;9.40;99.90;;;;;;6276403;22;20092;-87
2022/03/28 23:05:20;;;;;;;10.85;6.60;;;9.40;99.90;;;;;;6273470;22;20064;-88
2022/03/28 23:07:53;;;;;;;12.68;5.55;;;9.40;99.90;;;;;;6273432;22;20022;-87
2022/03/28 23:10:23;;;;;;;13.95;8.10;;;9.40;99.90;;;;;;6273451;22;20016;-87
2022/03/28 23:12:54;;;;;;;15.65;7.88;;;9.40;99.90;;;;;;6273637;22;20047;-88
2022/03/28 23:15:25;;;;;;;7.03;5.15;;;9.30;99.90;;;;;;6247638;22;20085;-88
2022/03/28 23:17:52;;;;;;;17.40;9.38;;;9.20;99.90;;;;;;6272696;22;20027;-87
2022/03/28 23:20:25;;;;;;;13.65;7.80;;;9.00;99.90;;;;;;6274705;22;20380;-89
2022/03/28 23:22:54;;;;;;;11.75;6.47;;;9.10;99.90;;;;;;6274581;22;20099;-87
2022/03/28 23:25:26;;;;;;;9.77;5.47;;;9.10;99.90;;;;;;6273075;22;20018;-87
2022/03/28 23:27:54;;;;;;;8.57;5.47;;;9.20;99.90;;;;;;6275053;22;20095;-87
2022/03/28 23:30:22;;;;;;;13.90;7.05;;;9.20;99.90;;;;;;6247970;22;20074;-86
2022/03/28 23:32:52;;;;;;;9.30;5.95;;;9.10;99.90;;;;;;6273372;22;20030;-88
2022/03/28 23:35:25;;;;;;;13.30;7.38;;;9.20;99.90;;;;;;6273556;22;20012;-88
2022/03/28 23:37:57;;;;;;;12.68;6.53;;;9.20;99.90;;;;;;6274060;22;20067;-86
2022/03/28 23:40:29;;;;;;;11.82;6.68;;;9.20;99.90;;;;;;6276689;22;20020;-87
2022/03/28 23:43:02;;;;;;;16.33;7.60;;;9.10;99.90;;;;;;6275493;22;20061;-87
2022/03/28 23:45:37;;;;;;;15.90;6.68;;;9.00;99.90;;;;;;6251310;22;20016;-87
2022/03/28 23:48:05;;;;;;;9.10;5.57;;;8.90;99.90;;;;;;6274810;22;20058;-87
2022/03/28 23:50:34;;;;;;;11.32;5.57;;;8.90;99.90;;;;;;6275124;22;20024;-87
2022/03/28 23:53:01;;;;;;;8.63;5.32;;;9.00;99.90;;;;;;6275470;22;20026;-86
2022/03/28 23:55:34;;;;;;;11.98;6.97;;;9.10;99.90;;;;;;6275006;22;20454;-88
2022/03/28 23:58:01;;;;;;;8.85;4.45;;;9.10;99.90;;;;;;6276829;22;20026;-87
